TAF, İngilizce`den: ``Terminal Aerodrome Forecast``, bir meydan tahmini, ilgili meteoroloji otoritesi (Türkiye`de: Meteoroloji Genel Müdürlüğü) tarafından tayin edilen meteoroloji ofislerince hazırlanır ve yayınlanır. Meydan tahmini, spesifik bir periyot esnasında bir havaalanında beklenen meteorolojik şartların kısa ve öz ifadesidir.

TAF (meteoroloji)

TAF, İngilizce`den: ``Terminal Aerodrome Forecast``, bir meydan tahmini, ilgili meteoroloji otoritesi (Türkiye`de: Meteoroloji Genel Müdürlüğü) tarafından tayin edilen meteoroloji ofislerince hazırlanır ve yayınlanır. Meydan tahmini, spesifik bir periyot esnasında bir havaalanında beklenen meteorolojik şartların kısa ve öz ifadesidir.

Kodlanmış şeklinden ve belirlenen periyot boyunca bu elemanların biri ya da daha fazlası için beklenen önemli değişiklikleri içerir.

;Örnek:
<tt>LTAZ 110940Z 111812 VRB02KT 9999 SCT040</TT>


;Anlamı:
  • ICAO kodu, burada Nevşehir Kapadokya havaalanı
  • ayın 11. gün saat 09:40 UTC yayınlandı
  • ayın 11. gün saat 18:00 bir sonraki gün saat 12:00 kadar geçerlidir
  • rüzgarın yönü (VRB = ``variable`` yani değişik yönlerden), hızı (2 knot)
  • iniş pistesinin görüş mesafesi (9999 = 10 km ve üzerinde)
  • bulutlar (4000 ft yükseklikte ``scattered``)


Kaynaklar

Vikipedi

İlgili konuları ara

Yanıtlar